Bookmark and Share
Track history (hours):
 

OOCL Atlanta

Last reported at 2014-Apr-12 07:13 UTC. Time now 2014-Apr-17 21:55 UTC.
Position N 27°58' E 123°18'.

Length 323 m; beam 42.8 m; draft 14.5 m.

Type: Cargo ship. MMSI: 477920300.

NotesDate/timePositionNaut miles runAvg speedWind from/ knotsBaromVisibWave heightAir tempDewpointWater temp
2014-Apr-12 07:13N 27°58' E 123°18'15721.9
2014-Apr-12 00:04N 25°54' E 121°31'7521.4
2014-Apr-11 20:34N 24°54' E 120°41'2222.1
2014-Apr-11 19:33N 24°34' E 120°28'2221.8
2014-Apr-11 18:33N 24°16' E 120°16'2121.1
2014-Apr-11 17:33N 23°57' E 120°05'2020.0
2014-Apr-11 16:33N 23°39' E 119°56'2120.8
2014-Apr-11 15:33N 23°18' E 119°56'2020.4
2014-Apr-11 14:33N 22°58' E 119°59'2020.3
2014-Apr-11 13:33N 22°39' E 120°08'1212.2
2014-Apr-11 12:33N 22°33' E 120°19'1 1.1
2014-Apr-11 11:33N 22°34' E 120°19'0 0.0
2014-Apr-11 08:33N 22°34' E 120°19'0 0.0
2014-Apr-11 07:33N 22°34' E 120°19'0 0.0
2014-Apr-11 05:09N 22°34' E 120°19'0 0.0
2014-Apr-11 00:27N 22°34' E 120°19'0 0.0
2014-Apr-10 21:15N 22°34' E 120°19'0 0.0
2014-Apr-10 18:27N 22°34' E 120°19'0 0.0
2014-Apr-10 17:33N 22°34' E 120°19'1 1.1
2014-Apr-10 16:33N 22°33' E 120°19'8 8.3
2014-Apr-10 15:33N 22°31' E 120°10'1818.2
2014-Apr-10 14:33N 22°29' E 119°51'8419.1
2014-Apr-10 10:11N 22°20' E 118°21'3119.2
2014-Apr-10 08:33N 22°18' E 117°47'1919.3
2014-Apr-10 07:33N 22°15' E 117°27'18020.0
2014-Apr-09 22:30N 22°10' E 114°12'1010.8
2014-Apr-09 21:33N 22°20' E 114°07'1 0.0
2014-Apr-09 00:22N 22°20' E 114°07'4 4.7
2014-Apr-08 23:31N 22°21' E 114°03'9 9.8
2014-Apr-08 22:34N 22°24' E 113°53'8 7.9
2014-Apr-08 21:33N 22°32' E 113°51'0 0.2
2014-Apr-08 20:20N 22°32' E 113°51'0 0.0
2014-Apr-08 19:32N 22°32' E 113°51'0 0.0
2014-Apr-08 17:32N 22°32' E 113°51'0 0.0
2014-Apr-08 16:26N 22°32' E 113°51'0 0.0
2014-Apr-08 15:20N 22°32' E 113°51'0 0.0
2014-Apr-08 14:26N 22°32' E 113°51'0 0.0
2014-Apr-08 13:33N 22°32' E 113°51'0 0.0
2014-Apr-08 12:23N 22°32' E 113°51'0 0.0
2014-Apr-08 11:29N 22°32' E 113°51'0 0.0
2014-Apr-08 10:33N 22°32' E 113°51'0 0.0
2014-Apr-08 09:33N 22°32' E 113°51'0 0.0
2014-Apr-08 08:33N 22°32' E 113°51'0 0.0
2014-Apr-08 07:33N 22°32' E 113°51'0 0.0
2014-Apr-08 06:33N 22°32' E 113°51'0 0.3
2014-Apr-08 05:33N 22°32' E 113°51'8 7.8
2014-Apr-08 04:33N 22°25' E 113°53'11 9.8
2014-Apr-08 03:24N 22°20' E 114°05'1111.8
2014-Apr-08 02:27N 22°11' E 114°12'  

Dump ship's entire track history

sailing weather and tide predictions

OOCL Atlanta — VRAR6 — position and weather